Aeroporto :
LOGIN :

Iscrizione | Disclaimer

   EN    FR    IT 

 










Sommario :    VFR   VFR Marginale   IFR   IFR Intensivo   IFR Molto Intensivo
Visibilità : 
Base nubi : 
>= 8 km
>= 3000ft
5 / 8 km
1000 / 3000 ft
1500m / 5 km
500 / 1000 ft
800 / 1500m
200 / 500 ft
< 800m
< 200 ft
Simboli :   Temporali  Nebbia  Neve Forte  Precipitazioni Forti  Vento > 20 kt
SIGMETs :   Varie  Temporali  Ghiacco  Turbolenza  Onda orograficha  Ceneri Vulcaniche






- Altitudine del aeroporto : 267 ft


EGDR - Culdrose Navy

ULTIMO METAR :
  • 150724Z 03011KT 9999 FEW012 SCT036 04/03 Q1007 TEMPO 8000 -SHRA SCT016 RMK BLU TEMPO WHT

METARs OBSOLETI :
  • 150650Z 03009KT 9999 FEW012 SCT036 04/02 Q1007 TEMPO 8000 -SHRA SCT016 RMK BLU TEMPO WHT
  • 150621Z 04009KT 9999 SCT036 03/02 Q1006 TEMPO 8000 -SHRA SCT016 RMK BLU TEMPO WHT
  • 150550Z 04009KT 9999 SCT036 04/02 Q1006 TEMPO 8000 -SHRA SCT016 RMK BLU TEMPO WHT
  • 150450Z AUTO 04011KT 9999 // FEW041/// 03/02 Q1006

TAF TAF EGDR
Valido dal 15 a 07 ore il 15 a 16 ore UTC


150604Z 1507/1516 03015G25KT 9999 FEW012
TEMPO 1507/1511 8000 -SHRA SCT016



MetMap, La meteo Aeronautica in un colpo d'occhio ! - Copyright ORBIFLY Dicembre 2007 - Disclaimer

ORBIFLY MET'MAP TEAM :

Programmazione e sviluppo : Alexandra Zaïnal
Concezione e sviluppo : Baudouin d'Aumeries
Co-Programmazione e sviluppo : Marc-Olivier Méhu
Supporto tecnico e logistico : Manuel Goepfert
Aiuto per la traduzione : Arnaldo La Scala

Contatto : metmap@orbifly.com




FONTI E CREDITI :

   NOAA